sensor_id;sensor_type;location;lat;lon;timestamp;pressure;altitude;pressure_sealevel;temperature
62932;BMP280;49037;41.898;25.004;2022-07-30T00:02:18;96527.44;;;21.38
62932;BMP280;49037;41.898;25.004;2022-07-30T00:10:04;96519.78;;;21.35
62932;BMP280;49037;41.898;25.004;2022-07-30T00:13:06;96499.25;;;21.32
62932;BMP280;49037;41.898;25.004;2022-07-30T00:15:52;96505.81;;;21.40
62932;BMP280;49037;41.898;25.004;2022-07-30T00:18:38;96496.97;;;21.40
62932;BMP280;49037;41.898;25.004;2022-07-30T00:21:26;96489.59;;;21.42
62932;BMP280;49037;41.898;25.004;2022-07-30T00:24:32;96483.38;;;21.40
62932;BMP280;49037;41.898;25.004;2022-07-30T00:26:58;96489.50;;;21.40
62932;BMP280;49037;41.898;25.004;2022-07-30T00:29:27;96478.50;;;21.38
62932;BMP280;49037;41.898;25.004;2022-07-30T00:32:01;96487.66;;;21.45
62932;BMP280;49037;41.898;25.004;2022-07-30T00:36:07;96478.94;;;21.60
62932;BMP280;49037;41.898;25.004;2022-07-30T00:44:34;96476.38;;;21.64
62932;BMP280;49037;41.898;25.004;2022-07-30T01:04:54;96480.63;;;21.53
62932;BMP280;49037;41.898;25.004;2022-07-30T01:08:00;96474.31;;;21.35
62932;BMP280;49037;41.898;25.004;2022-07-30T01:10:25;96467.66;;;21.25
62932;BMP280;49037;41.898;25.004;2022-07-30T01:15:19;96481.75;;;21.35
62932;BMP280;49037;41.898;25.004;2022-07-30T01:23:44;96474.28;;;21.22
62932;BMP280;49037;41.898;25.004;2022-07-30T01:26:17;96466.75;;;21.07
62932;BMP280;49037;41.898;25.004;2022-07-30T01:32:27;96469.84;;;21.02
62932;BMP280;49037;41.898;25.004;2022-07-30T01:34:59;96473.88;;;21.01
62932;BMP280;49037;41.898;25.004;2022-07-30T01:48:40;96488.19;;;20.77
62932;BMP280;49037;41.898;25.004;2022-07-30T01:51:29;96475.47;;;20.68
62932;BMP280;49037;41.898;25.004;2022-07-30T01:53:58;96468.00;;;20.55
62932;BMP280;49037;41.898;25.004;2022-07-30T01:56:45;96464.28;;;20.49
62932;BMP280;49037;41.898;25.004;2022-07-30T02:00:02;96457.28;;;20.32
62932;BMP280;49037;41.898;25.004;2022-07-30T02:02:42;96462.50;;;20.28
62932;BMP280;49037;41.898;25.004;2022-07-30T02:05:08;96469.59;;;20.22
62932;BMP280;49037;41.898;25.004;2022-07-30T02:12:19;96478.59;;;20.13
62932;BMP280;49037;41.898;25.004;2022-07-30T02:15:45;96465.16;;;20.04
62932;BMP280;49037;41.898;25.004;2022-07-30T02:18:30;96482.03;;;20.02
62932;BMP280;49037;41.898;25.004;2022-07-30T02:23:47;96462.41;;;19.79
62932;BMP280;49037;41.898;25.004;2022-07-30T02:26:22;96473.97;;;19.80
62932;BMP280;49037;41.898;25.004;2022-07-30T02:28:59;96470.31;;;19.75
62932;BMP280;49037;41.898;25.004;2022-07-30T02:31:28;96471.97;;;19.80
62932;BMP280;49037;41.898;25.004;2022-07-30T02:37:05;96467.84;;;19.79
62932;BMP280;49037;41.898;25.004;2022-07-30T02:39:56;96475.50;;;19.83
62932;BMP280;49037;41.898;25.004;2022-07-30T02:45:23;96469.75;;;19.77
62932;BMP280;49037;41.898;25.004;2022-07-30T02:48:14;96463.47;;;19.74
62932;BMP280;49037;41.898;25.004;2022-07-30T02:50:41;96467.41;;;19.71
62932;BMP280;49037;41.898;25.004;2022-07-30T02:53:29;96468.47;;;19.66
62932;BMP280;49037;41.898;25.004;2022-07-30T02:58:30;96480.00;;;19.67
62932;BMP280;49037;41.898;25.004;2022-07-30T03:01:05;96472.94;;;19.62
62932;BMP280;49037;41.898;25.004;2022-07-30T03:05:13;96470.69;;;19.58
62932;BMP280;49037;41.898;25.004;2022-07-30T03:07:59;96475.06;;;19.52
62932;BMP280;49037;41.898;25.004;2022-07-30T03:10:48;96478.59;;;19.54
62932;BMP280;49037;41.898;25.004;2022-07-30T03:13:16;96475.88;;;19.54
62932;BMP280;49037;41.898;25.004;2022-07-30T03:16:08;96473.31;;;19.56
62932;BMP280;49037;41.898;25.004;2022-07-30T03:18:52;96476.09;;;19.58
62932;BMP280;49037;41.898;25.004;2022-07-30T03:21:24;96460.81;;;19.51
62932;BMP280;49037;41.898;25.004;2022-07-30T03:23:54;96472.34;;;19.63
62932;BMP280;49037;41.898;25.004;2022-07-30T03:26:27;96476.91;;;19.61
62932;BMP280;49037;41.898;25.004;2022-07-30T03:29:14;96470.47;;;19.54
62932;BMP280;49037;41.898;25.004;2022-07-30T03:32:01;96474.94;;;19.61
62932;BMP280;49037;41.898;25.004;2022-07-30T03:34:31;96474.94;;;19.61
62932;BMP280;49037;41.898;25.004;2022-07-30T03:37:02;96464.31;;;19.65
62932;BMP280;49037;41.898;25.004;2022-07-30T03:39:34;96460.66;;;19.61
62932;BMP280;49037;41.898;25.004;2022-07-30T03:42:02;96470.44;;;19.66
62932;BMP280;49037;41.898;25.004;2022-07-30T03:44:29;96476.94;;;19.72
62932;BMP280;49037;41.898;25.004;2022-07-30T03:46:57;96481.97;;;19.78
62932;BMP280;49037;41.898;25.004;2022-07-30T03:49:42;96469.38;;;19.71
62932;BMP280;49037;41.898;25.004;2022-07-30T03:52:14;96471.16;;;19.66
62932;BMP280;49037;41.898;25.004;2022-07-30T03:54:41;96471.06;;;19.64
62932;BMP280;49037;41.898;25.004;2022-07-30T03:57:12;96467.72;;;19.66
62932;BMP280;49037;41.898;25.004;2022-07-30T03:59:58;96463.38;;;19.72
62932;BMP280;49037;41.898;25.004;2022-07-30T04:02:24;96465.97;;;19.70
62932;BMP280;49037;41.898;25.004;2022-07-30T04:04:50;96473.97;;;19.80
62932;BMP280;49037;41.898;25.004;2022-07-30T04:07:36;96471.97;;;19.80
62932;BMP280;49037;41.898;25.004;2022-07-30T04:10:02;96477.94;;;19.90
62932;BMP280;49037;41.898;25.004;2022-07-30T04:12:28;96464.97;;;19.88
62932;BMP280;49037;41.898;25.004;2022-07-30T04:18:44;96475.19;;;20.13
62932;BMP280;49037;41.898;25.004;2022-07-30T04:21:14;96472.47;;;20.13
62932;BMP280;49037;41.898;25.004;2022-07-30T04:23:41;96479.50;;;20.18
62932;BMP280;49037;41.898;25.004;2022-07-30T04:26:08;96472.78;;;20.19
62932;BMP280;49037;41.898;25.004;2022-07-30T04:28:34;96473.00;;;20.22
62932;BMP280;49037;41.898;25.004;2022-07-30T04:31:01;96471.63;;;20.22
62932;BMP280;49037;41.898;25.004;2022-07-30T04:34:32;96475.13;;;20.24
62932;BMP280;49037;41.898;25.004;2022-07-30T04:36:57;96476.06;;;20.28
62932;BMP280;49037;41.898;25.004;2022-07-30T04:39:23;96488.97;;;20.41
62932;BMP280;49037;41.898;25.004;2022-07-30T04:41:49;96484.84;;;20.40
62932;BMP280;49037;41.898;25.004;2022-07-30T04:44:17;96489.28;;;20.47
62932;BMP280;49037;41.898;25.004;2022-07-30T04:46:42;96487.72;;;20.56
62932;BMP280;49037;41.898;25.004;2022-07-30T04:49:17;96480.28;;;20.56
62932;BMP280;49037;41.898;25.004;2022-07-30T04:52:04;96473.19;;;20.62
62932;BMP280;49037;41.898;25.004;2022-07-30T04:54:42;96486.25;;;20.66
62932;BMP280;49037;41.898;25.004;2022-07-30T04:57:09;96480.44;;;20.71
62932;BMP280;49037;41.898;25.004;2022-07-30T04:59:37;96494.06;;;20.85
62932;BMP280;49037;41.898;25.004;2022-07-30T05:03:52;96489.31;;;20.85
62932;BMP280;49037;41.898;25.004;2022-07-30T05:06:21;96488.75;;;21.00
62932;BMP280;49037;41.898;25.004;2022-07-30T05:08:47;96487.44;;;21.14
62932;BMP280;49037;41.898;25.004;2022-07-30T05:11:13;96491.41;;;21.38
62932;BMP280;49037;41.898;25.004;2022-07-30T05:13:40;96501.47;;;21.62
62932;BMP280;49037;41.898;25.004;2022-07-30T05:16:06;96485.53;;;21.70
62932;BMP280;49037;41.898;25.004;2022-07-30T05:19:22;96483.31;;;21.93
62932;BMP280;49037;41.898;25.004;2022-07-30T05:22:33;96490.69;;;22.19
62932;BMP280;49037;41.898;25.004;2022-07-30T05:24:59;96501.59;;;22.35
62932;BMP280;49037;41.898;25.004;2022-07-30T05:27:24;96497.06;;;22.54
62932;BMP280;49037;41.898;25.004;2022-07-30T05:29:50;96504.94;;;22.77
62932;BMP280;49037;41.898;25.004;2022-07-30T05:32:15;96497.59;;;22.95
62932;BMP280;49037;41.898;25.004;2022-07-30T05:34:42;96504.22;;;23.22
62932;BMP280;49037;41.898;25.004;2022-07-30T05:37:07;96508.75;;;23.49
62932;BMP280;49037;41.898;25.004;2022-07-30T05:39:35;96508.53;;;23.75
62932;BMP280;49037;41.898;25.004;2022-07-30T05:42:03;96502.09;;;24.01
62932;BMP280;49037;41.898;25.004;2022-07-30T05:44:35;96500.47;;;24.29
62932;BMP280;49037;41.898;25.004;2022-07-30T05:47:20;96505.88;;;24.63
62932;BMP280;49037;41.898;25.004;2022-07-30T05:49:47;96506.97;;;24.93
62932;BMP280;49037;41.898;25.004;2022-07-30T05:52:12;96506.69;;;25.24
62932;BMP280;49037;41.898;25.004;2022-07-30T05:54:38;96500.84;;;25.52
62932;BMP280;49037;41.898;25.004;2022-07-30T05:57:03;96501.63;;;25.76
62932;BMP280;49037;41.898;25.004;2022-07-30T05:59:29;96487.22;;;25.97
62932;BMP280;49037;41.898;25.004;2022-07-30T06:01:54;96492.25;;;26.25
62932;BMP280;49037;41.898;25.004;2022-07-30T06:04:20;96486.75;;;26.46
62932;BMP280;49037;41.898;25.004;2022-07-30T06:06:45;96492.63;;;26.62
62932;BMP280;49037;41.898;25.004;2022-07-30T06:09:13;96488.47;;;26.59
62932;BMP280;49037;41.898;25.004;2022-07-30T06:11:40;96497.28;;;26.56
62932;BMP280;49037;41.898;25.004;2022-07-30T06:14:06;96491.13;;;26.80
62932;BMP280;49037;41.898;25.004;2022-07-30T06:16:31;96493.59;;;26.96
62932;BMP280;49037;41.898;25.004;2022-07-30T06:19:20;96502.03;;;26.78
62932;BMP280;49037;41.898;25.004;2022-07-30T06:21:51;96498.25;;;26.89
62932;BMP280;49037;41.898;25.004;2022-07-30T06:24:17;96504.00;;;26.99
62932;BMP280;49037;41.898;25.004;2022-07-30T06:26:42;96500.88;;;27.10
62932;BMP280;49037;41.898;25.004;2022-07-30T06:29:32;96500.22;;;27.37
62932;BMP280;49037;41.898;25.004;2022-07-30T06:32:00;96499.28;;;27.29
62932;BMP280;49037;41.898;25.004;2022-07-30T06:34:25;96496.75;;;27.37
62932;BMP280;49037;41.898;25.004;2022-07-30T06:36:57;96500.63;;;27.28
62932;BMP280;49037;41.898;25.004;2022-07-30T06:39:22;96500.09;;;27.60
62932;BMP280;49037;41.898;25.004;2022-07-30T06:41:50;96498.69;;;27.59
62932;BMP280;49037;41.898;25.004;2022-07-30T06:44:16;96490.97;;;27.79
62932;BMP280;49037;41.898;25.004;2022-07-30T06:46:41;96486.00;;;28.03
62932;BMP280;49037;41.898;25.004;2022-07-30T06:49:09;96491.59;;;28.06
62932;BMP280;49037;41.898;25.004;2022-07-30T06:51:35;96491.16;;;28.18
62932;BMP280;49037;41.898;25.004;2022-07-30T06:54:02;96492.22;;;28.34
62932;BMP280;49037;41.898;25.004;2022-07-30T06:56:32;96485.97;;;28.01
62932;BMP280;49037;41.898;25.004;2022-07-30T06:58:58;96497.41;;;28.20
62932;BMP280;49037;41.898;25.004;2022-07-30T07:01:23;96492.13;;;28.30
62932;BMP280;49037;41.898;25.004;2022-07-30T07:03:49;96486.53;;;28.26
62932;BMP280;49037;41.898;25.004;2022-07-30T07:09:54;96494.66;;;28.53
62932;BMP280;49037;41.898;25.004;2022-07-30T07:12:20;96489.72;;;28.79
62932;BMP280;49037;41.898;25.004;2022-07-30T07:14:45;96487.88;;;28.91
62932;BMP280;49037;41.898;25.004;2022-07-30T07:17:11;96497.66;;;29.00
62932;BMP280;49037;41.898;25.004;2022-07-30T07:19:37;96497.63;;;28.98
62932;BMP280;49037;41.898;25.004;2022-07-30T07:27:43;96512.41;;;29.55
62932;BMP280;49037;41.898;25.004;2022-07-30T07:52:57;96473.78;;;30.49
62932;BMP280;49037;41.898;25.004;2022-07-30T07:55:23;96473.94;;;30.59
62932;BMP280;49037;41.898;25.004;2022-07-30T07:57:55;96468.41;;;30.61
62932;BMP280;49037;41.898;25.004;2022-07-30T08:07:50;96454.88;;;30.86
62932;BMP280;49037;41.898;25.004;2022-07-30T08:30:57;96463.25;;;30.94
62932;BMP280;49037;41.898;25.004;2022-07-30T08:33:41;96458.53;;;31.04
62932;BMP280;49037;41.898;25.004;2022-07-30T08:39:47;96450.00;;;31.57
62932;BMP280;49037;41.898;25.004;2022-07-30T08:42:46;96450.84;;;31.81
62932;BMP280;49037;41.898;25.004;2022-07-30T08:45:14;96453.63;;;31.89
62932;BMP280;49037;41.898;25.004;2022-07-30T08:48:46;96450.19;;;31.93
62932;BMP280;49037;41.898;25.004;2022-07-30T08:52:26;96455.16;;;32.14
62932;BMP280;49037;41.898;25.004;2022-07-30T08:55:29;96440.66;;;32.19
62932;BMP280;49037;41.898;25.004;2022-07-30T09:04:39;96438.66;;;32.37
62932;BMP280;49037;41.898;25.004;2022-07-30T09:10:29;96431.06;;;32.42
62932;BMP280;49037;41.898;25.004;2022-07-30T09:16:23;96419.94;;;32.36
62932;BMP280;49037;41.898;25.004;2022-07-30T09:18:53;96426.25;;;32.56
62932;BMP280;49037;41.898;25.004;2022-07-30T09:21:39;96427.66;;;32.67
62932;BMP280;49037;41.898;25.004;2022-07-30T09:24:10;96423.53;;;32.70
62932;BMP280;49037;41.898;25.004;2022-07-30T09:26:56;96426.28;;;32.86
62932;BMP280;49037;41.898;25.004;2022-07-30T09:29:26;96415.84;;;32.49
62932;BMP280;49037;41.898;25.004;2022-07-30T09:32:02;96418.00;;;32.70
62932;BMP280;49037;41.898;25.004;2022-07-30T09:38:52;96417.94;;;33.43
62932;BMP280;49037;41.898;25.004;2022-07-30T09:41:35;96409.66;;;33.41
62932;BMP280;49037;41.898;25.004;2022-07-30T09:47:54;96407.63;;;32.94
62932;BMP280;49037;41.898;25.004;2022-07-30T09:50:20;96395.13;;;32.91
62932;BMP280;49037;41.898;25.004;2022-07-30T09:52:48;96401.38;;;32.84
62932;BMP280;49037;41.898;25.004;2022-07-30T09:55:33;96398.63;;;33.27
62932;BMP280;49037;41.898;25.004;2022-07-30T09:58:11;96389.59;;;33.01
62932;BMP280;49037;41.898;25.004;2022-07-30T10:00:38;96386.84;;;32.87
62932;BMP280;49037;41.898;25.004;2022-07-30T10:03:21;96381.31;;;32.91
62932;BMP280;49037;41.898;25.004;2022-07-30T10:05:53;96384.09;;;32.85
62932;BMP280;49037;41.898;25.004;2022-07-30T10:08:20;96382.69;;;32.82
62932;BMP280;49037;41.898;25.004;2022-07-30T10:11:02;96379.25;;;32.78
62932;BMP280;49037;41.898;25.004;2022-07-30T10:13:28;96382.69;;;33.16
62932;BMP280;49037;41.898;25.004;2022-07-30T10:15:53;96370.16;;;33.42
62932;BMP280;49037;41.898;25.004;2022-07-30T10:18:26;96380.53;;;33.48
62932;BMP280;49037;41.898;25.004;2022-07-30T10:20:52;96370.19;;;33.44
62932;BMP280;49037;41.898;25.004;2022-07-30T10:23:21;96360.47;;;33.51
62932;BMP280;49037;41.898;25.004;2022-07-30T10:25:49;96367.41;;;33.46
62932;BMP280;49037;41.898;25.004;2022-07-30T10:28:16;96376.38;;;33.56
62932;BMP280;49037;41.898;25.004;2022-07-30T10:30:51;96361.69;;;33.93
62932;BMP280;49037;41.898;25.004;2022-07-30T10:33:28;96354.88;;;33.71
62932;BMP280;49037;41.898;25.004;2022-07-30T10:35:57;96364.63;;;33.32
62932;BMP280;49037;41.898;25.004;2022-07-30T10:38:41;96366.03;;;33.17
62932;BMP280;49037;41.898;25.004;2022-07-30T10:48:15;96345.22;;;33.52
62932;BMP280;49037;41.898;25.004;2022-07-30T10:51:41;96341.00;;;33.71
62932;BMP280;49037;41.898;25.004;2022-07-30T10:54:52;96339.63;;;33.62
62932;BMP280;49037;41.898;25.004;2022-07-30T10:57:19;96341.75;;;33.55
62932;BMP280;49037;41.898;25.004;2022-07-30T11:02:18;96323.66;;;33.66
62932;BMP280;49037;41.898;25.004;2022-07-30T11:04:48;96329.94;;;33.59
62932;BMP280;49037;41.898;25.004;2022-07-30T11:09:51;96322.13;;;34.05
62932;BMP280;49037;41.898;25.004;2022-07-30T11:15:14;96320.00;;;34.11
62932;BMP280;49037;41.898;25.004;2022-07-30T11:18:02;96317.28;;;34.01
62932;BMP280;49037;41.898;25.004;2022-07-30T11:20:35;96307.47;;;34.16
62932;BMP280;49037;41.898;25.004;2022-07-30T11:25:49;96310.25;;;34.14
62932;BMP280;49037;41.898;25.004;2022-07-30T11:28:43;96312.16;;;34.41
62932;BMP280;49037;41.898;25.004;2022-07-30T12:43:06;96212.25;;;34.41
62932;BMP280;49037;41.898;25.004;2022-07-30T12:48:12;96226.75;;;34.49
62932;BMP280;49037;41.898;25.004;2022-07-30T12:51:24;96204.84;;;34.16
62932;BMP280;49037;41.898;25.004;2022-07-30T12:57:05;96193.53;;;34.41
62932;BMP280;49037;41.898;25.004;2022-07-30T13:00:05;96190.44;;;34.69
62932;BMP280;49037;41.898;25.004;2022-07-30T13:02:33;96186.47;;;34.54
62932;BMP280;49037;41.898;25.004;2022-07-30T13:05:00;96176.66;;;34.63
62932;BMP280;49037;41.898;25.004;2022-07-30T13:07:28;96173.94;;;34.57
62932;BMP280;49037;41.898;25.004;2022-07-30T13:10:18;96169.69;;;34.66
62932;BMP280;49037;41.898;25.004;2022-07-30T13:13:06;96162.28;;;34.43
62932;BMP280;49037;41.898;25.004;2022-07-30T13:16:01;96171.84;;;34.60
62932;BMP280;49037;41.898;25.004;2022-07-30T13:18:28;96165.09;;;34.39
62932;BMP280;49037;41.898;25.004;2022-07-30T13:20:55;96165.63;;;34.55
62932;BMP280;49037;41.898;25.004;2022-07-30T13:23:45;96149.78;;;34.44
62932;BMP280;49037;41.898;25.004;2022-07-30T13:26:11;96146.25;;;34.53
62932;BMP280;49037;41.898;25.004;2022-07-30T13:28:38;96135.22;;;34.43
62932;BMP280;49037;41.898;25.004;2022-07-30T13:31:23;96130.41;;;34.42
62932;BMP280;49037;41.898;25.004;2022-07-30T13:34:53;96123.97;;;34.59
62932;BMP280;49037;41.898;25.004;2022-07-30T13:42:46;96124.09;;;34.45
62932;BMP280;49037;41.898;25.004;2022-07-30T13:45:57;96126.88;;;34.47
62932;BMP280;49037;41.898;25.004;2022-07-30T13:48:51;96120.00;;;34.42
62932;BMP280;49037;41.898;25.004;2022-07-30T13:51:38;96120.72;;;34.39
62932;BMP280;49037;41.898;25.004;2022-07-30T13:54:29;96112.94;;;34.53
62932;BMP280;49037;41.898;25.004;2022-07-30T13:57:14;96107.03;;;34.23
62932;BMP280;49037;41.898;25.004;2022-07-30T13:59:40;96111.19;;;34.22
62932;BMP280;49037;41.898;25.004;2022-07-30T14:02:14;96120.19;;;34.23
62932;BMP280;49037;41.898;25.004;2022-07-30T14:04:40;96108.41;;;34.20
62932;BMP280;49037;41.898;25.004;2022-07-30T14:07:07;96100.25;;;34.07
62932;BMP280;49037;41.898;25.004;2022-07-30T14:09:32;96103.09;;;33.99
62932;BMP280;49037;41.898;25.004;2022-07-30T14:11:58;96102.41;;;33.98
62932;BMP280;49037;41.898;25.004;2022-07-30T14:14:24;96113.34;;;34.14
62932;BMP280;49037;41.898;25.004;2022-07-30T14:16:53;96107.91;;;34.02
62932;BMP280;49037;41.898;25.004;2022-07-30T14:19:22;96107.81;;;34.12
62932;BMP280;49037;41.898;25.004;2022-07-30T14:21:52;96088.63;;;33.88
62932;BMP280;49037;41.898;25.004;2022-07-30T14:24:19;96088.53;;;33.96
62932;BMP280;49037;41.898;25.004;2022-07-30T14:26:53;96084.28;;;34.05
62932;BMP280;49037;41.898;25.004;2022-07-30T14:29:32;96082.81;;;34.16
62932;BMP280;49037;41.898;25.004;2022-07-30T14:31:58;96081.47;;;34.11
62932;BMP280;49037;41.898;25.004;2022-07-30T14:34:23;96087.81;;;33.98
62932;BMP280;49037;41.898;25.004;2022-07-30T14:36:49;96082.16;;;34.13
62932;BMP280;49037;41.898;25.004;2022-07-30T14:39:14;96082.16;;;34.11
62932;BMP280;49037;41.898;25.004;2022-07-30T14:45:03;96087.81;;;33.98
62932;BMP280;49037;41.898;25.004;2022-07-30T15:03:22;96051.31;;;33.74
62932;BMP280;49037;41.898;25.004;2022-07-30T15:06:11;96057.63;;;33.66
62932;BMP280;49037;41.898;25.004;2022-07-30T15:08:53;96049.22;;;33.76
62932;BMP280;49037;41.898;25.004;2022-07-30T15:11:37;96060.31;;;33.78
62932;BMP280;49037;41.898;25.004;2022-07-30T15:21:07;96052.25;;;33.43
62932;BMP280;49037;41.898;25.004;2022-07-30T15:23:59;96050.25;;;33.39
62932;BMP280;49037;41.898;25.004;2022-07-30T15:26:48;96046.09;;;33.36
62932;BMP280;49037;41.898;25.004;2022-07-30T15:30:10;96050.88;;;33.44
62932;BMP280;49037;41.898;25.004;2022-07-30T15:33:37;96046.25;;;33.15
62932;BMP280;49037;41.898;25.004;2022-07-30T15:36:34;96036.53;;;33.19
62932;BMP280;49037;41.898;25.004;2022-07-30T15:39:10;96031.66;;;33.20
62932;BMP280;49037;41.898;25.004;2022-07-30T15:42:04;96031.06;;;33.08
62932;BMP280;49037;41.898;25.004;2022-07-30T15:45:42;96034.50;;;33.12
62932;BMP280;49037;41.898;25.004;2022-07-30T15:58:54;96035.31;;;32.87
62932;BMP280;49037;41.898;25.004;2022-07-30T16:01:56;96033.97;;;32.78
62932;BMP280;49037;41.898;25.004;2022-07-30T16:05:13;96028.47;;;32.74
62932;BMP280;49037;41.898;25.004;2022-07-30T16:08:32;96034.69;;;32.71
62932;BMP280;49037;41.898;25.004;2022-07-30T16:11:52;96034.69;;;32.71
62932;BMP280;49037;41.898;25.004;2022-07-30T16:14:39;96032.69;;;32.67
62932;BMP280;49037;41.898;25.004;2022-07-30T16:17:45;96038.22;;;32.59
62932;BMP280;49037;41.898;25.004;2022-07-30T18:27:03;96095.09;;;27.16
62932;BMP280;49037;41.898;25.004;2022-07-30T18:32:13;96090.16;;;27.11
62932;BMP280;49037;41.898;25.004;2022-07-30T18:35:01;96094.69;;;26.97
62932;BMP280;49037;41.898;25.004;2022-07-30T18:37:29;96096.59;;;26.90
62932;BMP280;49037;41.898;25.004;2022-07-30T18:40:15;96094.47;;;26.87
62932;BMP280;49037;41.898;25.004;2022-07-30T18:43:19;96100.56;;;26.83
62932;BMP280;49037;41.898;25.004;2022-07-30T18:46:12;96104.78;;;26.88
62932;BMP280;49037;41.898;25.004;2022-07-30T18:51:16;96107.22;;;26.74
62932;BMP280;49037;41.898;25.004;2022-07-30T18:54:03;96093.22;;;26.61
62932;BMP280;49037;41.898;25.004;2022-07-30T18:56:45;96106.03;;;26.52
62932;BMP280;49037;41.898;25.004;2022-07-30T19:14:04;96123.31;;;26.02
62932;BMP280;49037;41.898;25.004;2022-07-30T21:59:29;96275.78;;;26.46
62932;BMP280;49037;41.898;25.004;2022-07-30T23:31:55;96264.91;;;25.52
62932;BMP280;49037;41.898;25.004;2022-07-30T23:40:23;96231.56;;;25.59
